sensor_id;sensor_type;location;lat;lon;timestamp;P1;durP1;ratioP1;P2;durP2;ratioP2
16979;SDS011;42288;52.182;21.156;2022-10-31T00:00:18;52.83;;;28.97;;
16979;SDS011;42288;52.182;21.156;2022-10-31T00:02:43;51.43;;;30.93;;
16979;SDS011;42288;52.182;21.156;2022-10-31T00:05:09;59.37;;;33.80;;
16979;SDS011;42288;52.182;21.156;2022-10-31T00:07:35;53.23;;;31.97;;
16979;SDS011;42288;52.182;21.156;2022-10-31T00:10:00;54.13;;;29.87;;
16979;SDS011;42288;52.182;21.156;2022-10-31T00:12:26;49.93;;;29.73;;
16979;SDS011;42288;52.182;21.156;2022-10-31T00:14:51;49.93;;;29.53;;
16979;SDS011;42288;52.182;21.156;2022-10-31T00:17:17;50.00;;;29.27;;
16979;SDS011;42288;52.182;21.156;2022-10-31T00:19:42;48.47;;;29.33;;
16979;SDS011;42288;52.182;21.156;2022-10-31T00:22:08;49.03;;;28.53;;
16979;SDS011;42288;52.182;21.156;2022-10-31T00:24:33;48.87;;;28.83;;
16979;SDS011;42288;52.182;21.156;2022-10-31T00:26:59;48.10;;;29.40;;
16979;SDS011;42288;52.182;21.156;2022-10-31T00:29:24;51.30;;;30.17;;
16979;SDS011;42288;52.182;21.156;2022-10-31T00:31:50;53.43;;;30.40;;
16979;SDS011;42288;52.182;21.156;2022-10-31T00:34:17;52.03;;;29.50;;
16979;SDS011;42288;52.182;21.156;2022-10-31T00:36:42;52.20;;;30.40;;
16979;SDS011;42288;52.182;21.156;2022-10-31T00:39:08;49.07;;;29.20;;
16979;SDS011;42288;52.182;21.156;2022-10-31T00:41:33;49.27;;;28.80;;
16979;SDS011;42288;52.182;21.156;2022-10-31T00:43:59;47.33;;;27.93;;
16979;SDS011;42288;52.182;21.156;2022-10-31T00:46:25;52.97;;;28.63;;
16979;SDS011;42288;52.182;21.156;2022-10-31T00:48:50;45.03;;;27.27;;
16979;SDS011;42288;52.182;21.156;2022-10-31T00:51:15;50.33;;;29.10;;
16979;SDS011;42288;52.182;21.156;2022-10-31T00:53:41;47.60;;;27.40;;
16979;SDS011;42288;52.182;21.156;2022-10-31T00:56:07;50.20;;;28.30;;
16979;SDS011;42288;52.182;21.156;2022-10-31T00:58:32;45.00;;;28.23;;
16979;SDS011;42288;52.182;21.156;2022-10-31T01:00:58;47.17;;;27.07;;
16979;SDS011;42288;52.182;21.156;2022-10-31T01:03:24;47.77;;;27.17;;
16979;SDS011;42288;52.182;21.156;2022-10-31T01:06:04;44.20;;;26.63;;
16979;SDS011;42288;52.182;21.156;2022-10-31T01:08:32;44.30;;;26.43;;
16979;SDS011;42288;52.182;21.156;2022-10-31T01:11:00;43.40;;;26.47;;
16979;SDS011;42288;52.182;21.156;2022-10-31T01:13:31;42.63;;;25.30;;
16979;SDS011;42288;52.182;21.156;2022-10-31T01:15:58;43.50;;;25.77;;
16979;SDS011;42288;52.182;21.156;2022-10-31T01:18:24;47.57;;;28.17;;
16979;SDS011;42288;52.182;21.156;2022-10-31T01:20:56;44.80;;;26.67;;
16979;SDS011;42288;52.182;21.156;2022-10-31T01:23:30;40.47;;;24.93;;
16979;SDS011;42288;52.182;21.156;2022-10-31T01:26:09;43.63;;;25.70;;
16979;SDS011;42288;52.182;21.156;2022-10-31T01:28:38;41.70;;;25.63;;
16979;SDS011;42288;52.182;21.156;2022-10-31T01:31:08;39.10;;;24.73;;
16979;SDS011;42288;52.182;21.156;2022-10-31T01:33:34;42.70;;;25.17;;
16979;SDS011;42288;52.182;21.156;2022-10-31T01:36:00;41.33;;;24.93;;
16979;SDS011;42288;52.182;21.156;2022-10-31T01:38:26;40.97;;;24.80;;
16979;SDS011;42288;52.182;21.156;2022-10-31T01:40:52;38.53;;;24.57;;
16979;SDS011;42288;52.182;21.156;2022-10-31T01:43:18;40.03;;;24.83;;
16979;SDS011;42288;52.182;21.156;2022-10-31T01:45:46;42.33;;;24.80;;
16979;SDS011;42288;52.182;21.156;2022-10-31T01:48:19;38.33;;;24.33;;
16979;SDS011;42288;52.182;21.156;2022-10-31T01:50:49;39.17;;;25.43;;
16979;SDS011;42288;52.182;21.156;2022-10-31T01:53:18;38.80;;;24.90;;
16979;SDS011;42288;52.182;21.156;2022-10-31T01:55:44;43.57;;;25.43;;
16979;SDS011;42288;52.182;21.156;2022-10-31T01:58:12;38.90;;;24.60;;
16979;SDS011;42288;52.182;21.156;2022-10-31T02:00:41;42.10;;;25.20;;
16979;SDS011;42288;52.182;21.156;2022-10-31T02:03:10;43.53;;;25.67;;
16979;SDS011;42288;52.182;21.156;2022-10-31T02:05:36;43.20;;;25.47;;
16979;SDS011;42288;52.182;21.156;2022-10-31T02:08:16;38.23;;;23.77;;
16979;SDS011;42288;52.182;21.156;2022-10-31T02:10:46;43.93;;;26.33;;
16979;SDS011;42288;52.182;21.156;2022-10-31T02:13:12;42.00;;;25.00;;
16979;SDS011;42288;52.182;21.156;2022-10-31T02:15:38;38.40;;;24.90;;
16979;SDS011;42288;52.182;21.156;2022-10-31T02:18:05;37.40;;;24.43;;
16979;SDS011;42288;52.182;21.156;2022-10-31T02:20:40;47.20;;;27.03;;
16979;SDS011;42288;52.182;21.156;2022-10-31T02:26:41;43.93;;;24.20;;
16979;SDS011;42288;52.182;21.156;2022-10-31T02:34:26;38.57;;;23.87;;
16979;SDS011;42288;52.182;21.156;2022-10-31T02:37:04;40.23;;;24.10;;
16979;SDS011;42288;52.182;21.156;2022-10-31T02:39:38;43.30;;;24.17;;
16979;SDS011;42288;52.182;21.156;2022-10-31T02:45:21;40.00;;;24.30;;
16979;SDS011;42288;52.182;21.156;2022-10-31T02:47:53;41.63;;;25.30;;
16979;SDS011;42288;52.182;21.156;2022-10-31T02:50:25;38.30;;;24.00;;
16979;SDS011;42288;52.182;21.156;2022-10-31T02:52:53;39.17;;;23.17;;
16979;SDS011;42288;52.182;21.156;2022-10-31T02:57:48;40.80;;;23.47;;
16979;SDS011;42288;52.182;21.156;2022-10-31T03:00:14;38.13;;;23.23;;
16979;SDS011;42288;52.182;21.156;2022-10-31T03:02:45;39.13;;;23.77;;
16979;SDS011;42288;52.182;21.156;2022-10-31T03:11:01;42.80;;;24.77;;
16979;SDS011;42288;52.182;21.156;2022-10-31T03:16:16;38.50;;;23.07;;
16979;SDS011;42288;52.182;21.156;2022-10-31T03:18:56;41.43;;;23.87;;
16979;SDS011;42288;52.182;21.156;2022-10-31T03:21:36;45.63;;;24.57;;
16979;SDS011;42288;52.182;21.156;2022-10-31T03:24:07;50.80;;;25.63;;
16979;SDS011;42288;52.182;21.156;2022-10-31T03:26:37;45.77;;;25.77;;
16979;SDS011;42288;52.182;21.156;2022-10-31T03:29:06;47.43;;;25.67;;
16979;SDS011;42288;52.182;21.156;2022-10-31T03:31:57;49.00;;;25.30;;
16979;SDS011;42288;52.182;21.156;2022-10-31T03:34:29;86.57;;;28.53;;
16979;SDS011;42288;52.182;21.156;2022-10-31T03:36:57;57.23;;;26.57;;
16979;SDS011;42288;52.182;21.156;2022-10-31T03:39:25;68.87;;;28.53;;
16979;SDS011;42288;52.182;21.156;2022-10-31T03:41:53;56.90;;;27.67;;
16979;SDS011;42288;52.182;21.156;2022-10-31T03:44:30;67.60;;;28.97;;
16979;SDS011;42288;52.182;21.156;2022-10-31T03:46:59;65.30;;;27.90;;
16979;SDS011;42288;52.182;21.156;2022-10-31T03:49:26;72.50;;;28.67;;
16979;SDS011;42288;52.182;21.156;2022-10-31T03:52:03;62.53;;;28.27;;
16979;SDS011;42288;52.182;21.156;2022-10-31T03:54:46;67.20;;;28.20;;
16979;SDS011;42288;52.182;21.156;2022-10-31T03:57:19;95.53;;;29.67;;
16979;SDS011;42288;52.182;21.156;2022-10-31T04:00:13;147.37;;;31.57;;
16979;SDS011;42288;52.182;21.156;2022-10-31T04:02:42;132.67;;;29.90;;
16979;SDS011;42288;52.182;21.156;2022-10-31T04:05:15;101.03;;;27.57;;
16979;SDS011;42288;52.182;21.156;2022-10-31T04:07:43;93.70;;;28.97;;
16979;SDS011;42288;52.182;21.156;2022-10-31T04:10:13;102.87;;;29.30;;
16979;SDS011;42288;52.182;21.156;2022-10-31T04:12:41;143.47;;;32.50;;
16979;SDS011;42288;52.182;21.156;2022-10-31T04:15:09;84.23;;;28.10;;
16979;SDS011;42288;52.182;21.156;2022-10-31T04:17:37;61.33;;;27.90;;
16979;SDS011;42288;52.182;21.156;2022-10-31T04:20:05;85.40;;;28.33;;
16979;SDS011;42288;52.182;21.156;2022-10-31T04:22:31;77.77;;;26.87;;
16979;SDS011;42288;52.182;21.156;2022-10-31T04:24:57;95.17;;;28.73;;
16979;SDS011;42288;52.182;21.156;2022-10-31T04:27:22;68.60;;;27.90;;
16979;SDS011;42288;52.182;21.156;2022-10-31T04:29:48;74.47;;;26.83;;
16979;SDS011;42288;52.182;21.156;2022-10-31T04:32:13;62.30;;;26.87;;
16979;SDS011;42288;52.182;21.156;2022-10-31T04:34:38;56.17;;;26.40;;
16979;SDS011;42288;52.182;21.156;2022-10-31T04:37:04;48.07;;;26.70;;
16979;SDS011;42288;52.182;21.156;2022-10-31T04:39:30;54.03;;;26.03;;
16979;SDS011;42288;52.182;21.156;2022-10-31T04:41:55;61.27;;;26.40;;
16979;SDS011;42288;52.182;21.156;2022-10-31T04:44:21;60.67;;;27.97;;
16979;SDS011;42288;52.182;21.156;2022-10-31T04:46:46;51.63;;;27.20;;
16979;SDS011;42288;52.182;21.156;2022-10-31T04:49:12;51.13;;;26.57;;
16979;SDS011;42288;52.182;21.156;2022-10-31T04:51:37;59.97;;;27.30;;
16979;SDS011;42288;52.182;21.156;2022-10-31T04:54:03;53.83;;;28.90;;
16979;SDS011;42288;52.182;21.156;2022-10-31T04:56:28;74.47;;;28.77;;
16979;SDS011;42288;52.182;21.156;2022-10-31T04:58:54;70.63;;;29.47;;
16979;SDS011;42288;52.182;21.156;2022-10-31T05:01:19;80.90;;;29.57;;
16979;SDS011;42288;52.182;21.156;2022-10-31T05:03:45;66.43;;;28.20;;
16979;SDS011;42288;52.182;21.156;2022-10-31T05:06:10;66.50;;;28.20;;
16979;SDS011;42288;52.182;21.156;2022-10-31T05:08:36;67.67;;;28.43;;
16979;SDS011;42288;52.182;21.156;2022-10-31T05:11:02;98.23;;;28.50;;
16979;SDS011;42288;52.182;21.156;2022-10-31T05:13:28;70.37;;;28.83;;
16979;SDS011;42288;52.182;21.156;2022-10-31T05:15:54;66.70;;;28.47;;
16979;SDS011;42288;52.182;21.156;2022-10-31T05:18:20;70.33;;;29.63;;
16979;SDS011;42288;52.182;21.156;2022-10-31T05:20:45;125.60;;;32.47;;
16979;SDS011;42288;52.182;21.156;2022-10-31T05:23:11;108.00;;;31.60;;
16979;SDS011;42288;52.182;21.156;2022-10-31T05:25:37;143.87;;;31.60;;
16979;SDS011;42288;52.182;21.156;2022-10-31T05:28:02;56.80;;;27.93;;
16979;SDS011;42288;52.182;21.156;2022-10-31T05:30:29;68.17;;;28.73;;
16979;SDS011;42288;52.182;21.156;2022-10-31T05:32:56;87.83;;;26.70;;
16979;SDS011;42288;52.182;21.156;2022-10-31T05:35:23;53.20;;;27.50;;
16979;SDS011;42288;52.182;21.156;2022-10-31T05:37:57;79.57;;;28.93;;
16979;SDS011;42288;52.182;21.156;2022-10-31T05:40:24;82.17;;;27.50;;
16979;SDS011;42288;52.182;21.156;2022-10-31T05:42:51;141.97;;;28.30;;
16979;SDS011;42288;52.182;21.156;2022-10-31T05:45:18;138.80;;;28.27;;
16979;SDS011;42288;52.182;21.156;2022-10-31T05:47:51;115.43;;;26.73;;
16979;SDS011;42288;52.182;21.156;2022-10-31T05:50:24;88.63;;;25.47;;
16979;SDS011;42288;52.182;21.156;2022-10-31T05:52:55;105.77;;;26.37;;
16979;SDS011;42288;52.182;21.156;2022-10-31T05:55:22;88.20;;;25.50;;
16979;SDS011;42288;52.182;21.156;2022-10-31T05:57:48;132.27;;;26.40;;
16979;SDS011;42288;52.182;21.156;2022-10-31T06:00:13;109.93;;;26.73;;
16979;SDS011;42288;52.182;21.156;2022-10-31T06:02:38;59.87;;;26.27;;
16979;SDS011;42288;52.182;21.156;2022-10-31T06:05:04;66.57;;;26.80;;
16979;SDS011;42288;52.182;21.156;2022-10-31T06:07:33;67.23;;;25.07;;
16979;SDS011;42288;52.182;21.156;2022-10-31T06:09:59;57.67;;;25.10;;
16979;SDS011;42288;52.182;21.156;2022-10-31T06:12:25;66.57;;;25.87;;
16979;SDS011;42288;52.182;21.156;2022-10-31T06:14:51;72.20;;;27.30;;
16979;SDS011;42288;52.182;21.156;2022-10-31T06:17:16;54.20;;;24.27;;
16979;SDS011;42288;52.182;21.156;2022-10-31T06:19:41;54.50;;;23.43;;
16979;SDS011;42288;52.182;21.156;2022-10-31T06:22:07;71.40;;;24.97;;
16979;SDS011;42288;52.182;21.156;2022-10-31T06:24:33;67.10;;;24.27;;
16979;SDS011;42288;52.182;21.156;2022-10-31T06:26:58;83.67;;;26.23;;
16979;SDS011;42288;52.182;21.156;2022-10-31T06:29:24;72.67;;;23.13;;
16979;SDS011;42288;52.182;21.156;2022-10-31T06:31:52;101.50;;;23.73;;
16979;SDS011;42288;52.182;21.156;2022-10-31T06:34:18;69.27;;;22.93;;
16979;SDS011;42288;52.182;21.156;2022-10-31T06:36:45;85.47;;;24.13;;
16979;SDS011;42288;52.182;21.156;2022-10-31T06:39:11;78.07;;;21.93;;
16979;SDS011;42288;52.182;21.156;2022-10-31T06:41:36;75.40;;;20.97;;
16979;SDS011;42288;52.182;21.156;2022-10-31T06:44:02;117.83;;;21.63;;
16979;SDS011;42288;52.182;21.156;2022-10-31T06:46:27;75.03;;;20.87;;
16979;SDS011;42288;52.182;21.156;2022-10-31T06:48:53;90.97;;;20.73;;
16979;SDS011;42288;52.182;21.156;2022-10-31T06:51:18;79.03;;;22.13;;
16979;SDS011;42288;52.182;21.156;2022-10-31T06:53:44;54.37;;;19.07;;
16979;SDS011;42288;52.182;21.156;2022-10-31T06:56:09;59.53;;;19.43;;
16979;SDS011;42288;52.182;21.156;2022-10-31T06:58:35;72.20;;;20.40;;
16979;SDS011;42288;52.182;21.156;2022-10-31T07:01:00;59.43;;;19.67;;
16979;SDS011;42288;52.182;21.156;2022-10-31T07:03:26;61.90;;;20.33;;
16979;SDS011;42288;52.182;21.156;2022-10-31T07:05:51;67.23;;;21.40;;
16979;SDS011;42288;52.182;21.156;2022-10-31T07:08:17;82.30;;;21.37;;
16979;SDS011;42288;52.182;21.156;2022-10-31T07:10:42;61.23;;;18.23;;
16979;SDS011;42288;52.182;21.156;2022-10-31T07:13:15;69.07;;;19.20;;
16979;SDS011;42288;52.182;21.156;2022-10-31T07:15:41;63.70;;;20.23;;
16979;SDS011;42288;52.182;21.156;2022-10-31T07:18:08;59.60;;;18.57;;
16979;SDS011;42288;52.182;21.156;2022-10-31T07:20:35;40.50;;;18.10;;
16979;SDS011;42288;52.182;21.156;2022-10-31T07:23:00;44.33;;;18.13;;
16979;SDS011;42288;52.182;21.156;2022-10-31T07:25:26;43.43;;;19.77;;
16979;SDS011;42288;52.182;21.156;2022-10-31T07:27:52;41.47;;;19.47;;
16979;SDS011;42288;52.182;21.156;2022-10-31T07:30:18;37.13;;;19.87;;
16979;SDS011;42288;52.182;21.156;2022-10-31T07:32:47;37.70;;;18.37;;
16979;SDS011;42288;52.182;21.156;2022-10-31T07:35:18;37.63;;;19.37;;
16979;SDS011;42288;52.182;21.156;2022-10-31T07:37:45;42.77;;;21.37;;
16979;SDS011;42288;52.182;21.156;2022-10-31T07:40:11;43.73;;;21.53;;
16979;SDS011;42288;52.182;21.156;2022-10-31T07:42:37;39.03;;;19.50;;
16979;SDS011;42288;52.182;21.156;2022-10-31T07:45:04;38.27;;;19.63;;
16979;SDS011;42288;52.182;21.156;2022-10-31T07:47:41;37.03;;;20.33;;
16979;SDS011;42288;52.182;21.156;2022-10-31T07:50:08;39.00;;;19.80;;
16979;SDS011;42288;52.182;21.156;2022-10-31T07:52:34;37.13;;;20.13;;
16979;SDS011;42288;52.182;21.156;2022-10-31T07:55:00;33.50;;;19.10;;
16979;SDS011;42288;52.182;21.156;2022-10-31T07:57:26;36.80;;;20.30;;
16979;SDS011;42288;52.182;21.156;2022-10-31T07:59:52;36.07;;;19.07;;
16979;SDS011;42288;52.182;21.156;2022-10-31T08:02:17;40.53;;;21.57;;
16979;SDS011;42288;52.182;21.156;2022-10-31T08:04:42;42.47;;;22.40;;
16979;SDS011;42288;52.182;21.156;2022-10-31T08:07:08;36.23;;;20.40;;
16979;SDS011;42288;52.182;21.156;2022-10-31T08:09:33;40.80;;;21.03;;
16979;SDS011;42288;52.182;21.156;2022-10-31T08:11:59;42.50;;;20.07;;
16979;SDS011;42288;52.182;21.156;2022-10-31T08:14:24;37.50;;;22.27;;
16979;SDS011;42288;52.182;21.156;2022-10-31T08:16:51;38.60;;;22.43;;
16979;SDS011;42288;52.182;21.156;2022-10-31T08:19:18;43.10;;;22.20;;
16979;SDS011;42288;52.182;21.156;2022-10-31T08:21:43;36.73;;;20.90;;
16979;SDS011;42288;52.182;21.156;2022-10-31T08:24:09;36.63;;;22.27;;
16979;SDS011;42288;52.182;21.156;2022-10-31T08:26:34;47.70;;;24.70;;
16979;SDS011;42288;52.182;21.156;2022-10-31T08:29:00;36.63;;;22.10;;
16979;SDS011;42288;52.182;21.156;2022-10-31T08:31:26;37.80;;;21.60;;
16979;SDS011;42288;52.182;21.156;2022-10-31T08:33:53;39.30;;;21.60;;
16979;SDS011;42288;52.182;21.156;2022-10-31T08:36:19;41.10;;;21.43;;
16979;SDS011;42288;52.182;21.156;2022-10-31T08:38:46;37.80;;;21.00;;
16979;SDS011;42288;52.182;21.156;2022-10-31T08:41:12;35.60;;;19.80;;
16979;SDS011;42288;52.182;21.156;2022-10-31T08:43:37;34.60;;;19.57;;
16979;SDS011;42288;52.182;21.156;2022-10-31T08:46:03;34.53;;;19.27;;
16979;SDS011;42288;52.182;21.156;2022-10-31T08:48:29;33.43;;;20.20;;
16979;SDS011;42288;52.182;21.156;2022-10-31T08:50:55;33.43;;;18.50;;
16979;SDS011;42288;52.182;21.156;2022-10-31T08:53:22;33.33;;;18.87;;
16979;SDS011;42288;52.182;21.156;2022-10-31T08:55:48;33.13;;;19.17;;
16979;SDS011;42288;52.182;21.156;2022-10-31T08:58:18;34.80;;;19.67;;
16979;SDS011;42288;52.182;21.156;2022-10-31T09:00:44;32.93;;;17.93;;
16979;SDS011;42288;52.182;21.156;2022-10-31T09:03:12;34.27;;;19.17;;
16979;SDS011;42288;52.182;21.156;2022-10-31T09:05:39;34.13;;;18.37;;
16979;SDS011;42288;52.182;21.156;2022-10-31T09:08:05;31.80;;;18.47;;
16979;SDS011;42288;52.182;21.156;2022-10-31T09:10:32;31.57;;;18.40;;
16979;SDS011;42288;52.182;21.156;2022-10-31T09:12:59;34.93;;;19.13;;
16979;SDS011;42288;52.182;21.156;2022-10-31T09:15:37;30.90;;;17.40;;
16979;SDS011;42288;52.182;21.156;2022-10-31T09:18:07;28.43;;;17.07;;
16979;SDS011;42288;52.182;21.156;2022-10-31T09:20:33;30.20;;;18.20;;
16979;SDS011;42288;52.182;21.156;2022-10-31T09:23:01;32.57;;;17.87;;
16979;SDS011;42288;52.182;21.156;2022-10-31T09:25:33;29.20;;;17.77;;
16979;SDS011;42288;52.182;21.156;2022-10-31T09:28:00;35.30;;;20.43;;
16979;SDS011;42288;52.182;21.156;2022-10-31T09:30:27;28.67;;;17.93;;
16979;SDS011;42288;52.182;21.156;2022-10-31T09:32:55;29.73;;;18.27;;
16979;SDS011;42288;52.182;21.156;2022-10-31T09:35:21;32.00;;;18.23;;
16979;SDS011;42288;52.182;21.156;2022-10-31T09:37:53;33.47;;;19.07;;
16979;SDS011;42288;52.182;21.156;2022-10-31T09:40:19;27.20;;;17.53;;
16979;SDS011;42288;52.182;21.156;2022-10-31T09:42:48;26.50;;;16.43;;
16979;SDS011;42288;52.182;21.156;2022-10-31T09:47:54;28.50;;;16.20;;
16979;SDS011;42288;52.182;21.156;2022-10-31T09:50:41;30.80;;;16.07;;
16979;SDS011;42288;52.182;21.156;2022-10-31T09:55:51;32.33;;;17.60;;
16979;SDS011;42288;52.182;21.156;2022-10-31T09:58:20;29.13;;;18.10;;
16979;SDS011;42288;52.182;21.156;2022-10-31T10:00:50;28.03;;;16.67;;
16979;SDS011;42288;52.182;21.156;2022-10-31T10:03:27;27.93;;;17.03;;
16979;SDS011;42288;52.182;21.156;2022-10-31T10:05:59;27.43;;;15.93;;
16979;SDS011;42288;52.182;21.156;2022-10-31T10:08:32;28.07;;;15.90;;
16979;SDS011;42288;52.182;21.156;2022-10-31T10:17:33;23.77;;;15.60;;
16979;SDS011;42288;52.182;21.156;2022-10-31T10:20:23;23.27;;;14.37;;
16979;SDS011;42288;52.182;21.156;2022-10-31T10:25:41;26.47;;;14.93;;
16979;SDS011;42288;52.182;21.156;2022-10-31T10:28:21;25.03;;;14.53;;
16979;SDS011;42288;52.182;21.156;2022-10-31T10:31:05;23.73;;;15.60;;
16979;SDS011;42288;52.182;21.156;2022-10-31T10:39:18;20.23;;;14.00;;
16979;SDS011;42288;52.182;21.156;2022-10-31T10:41:48;18.80;;;12.73;;
16979;SDS011;42288;52.182;21.156;2022-10-31T10:44:34;24.87;;;14.77;;
16979;SDS011;42288;52.182;21.156;2022-10-31T10:47:27;21.40;;;14.20;;
16979;SDS011;42288;52.182;21.156;2022-10-31T10:50:06;19.07;;;13.90;;
16979;SDS011;42288;52.182;21.156;2022-10-31T10:52:48;22.27;;;15.67;;
16979;SDS011;42288;52.182;21.156;2022-10-31T10:55:53;20.73;;;14.33;;
16979;SDS011;42288;52.182;21.156;2022-10-31T10:58:15;22.73;;;15.77;;
16979;SDS011;42288;52.182;21.156;2022-10-31T11:00:42;25.00;;;16.03;;
16979;SDS011;42288;52.182;21.156;2022-10-31T11:03:08;25.20;;;15.40;;
16979;SDS011;42288;52.182;21.156;2022-10-31T11:05:41;21.33;;;15.03;;
16979;SDS011;42288;52.182;21.156;2022-10-31T11:08:31;20.17;;;13.83;;
16979;SDS011;42288;52.182;21.156;2022-10-31T11:11:05;21.97;;;14.50;;
16979;SDS011;42288;52.182;21.156;2022-10-31T11:13:37;17.87;;;12.87;;
16979;SDS011;42288;52.182;21.156;2022-10-31T11:16:07;17.70;;;11.93;;
16979;SDS011;42288;52.182;21.156;2022-10-31T11:18:42;18.10;;;12.63;;
16979;SDS011;42288;52.182;21.156;2022-10-31T11:21:21;25.77;;;13.57;;
16979;SDS011;42288;52.182;21.156;2022-10-31T11:23:50;18.07;;;12.33;;
16979;SDS011;42288;52.182;21.156;2022-10-31T11:26:27;18.30;;;12.60;;
16979;SDS011;42288;52.182;21.156;2022-10-31T11:28:56;22.27;;;12.77;;
16979;SDS011;42288;52.182;21.156;2022-10-31T11:31:23;18.77;;;11.93;;
16979;SDS011;42288;52.182;21.156;2022-10-31T11:33:53;16.40;;;10.20;;
16979;SDS011;42288;52.182;21.156;2022-10-31T11:36:25;20.67;;;12.40;;
16979;SDS011;42288;52.182;21.156;2022-10-31T11:38:54;16.63;;;11.10;;
16979;SDS011;42288;52.182;21.156;2022-10-31T11:41:30;15.90;;;10.70;;
16979;SDS011;42288;52.182;21.156;2022-10-31T11:43:58;17.27;;;10.63;;
16979;SDS011;42288;52.182;21.156;2022-10-31T11:46:33;19.70;;;11.23;;
16979;SDS011;42288;52.182;21.156;2022-10-31T11:48:59;17.67;;;10.43;;
16979;SDS011;42288;52.182;21.156;2022-10-31T11:51:26;16.30;;;9.90;;
16979;SDS011;42288;52.182;21.156;2022-10-31T11:53:56;13.90;;;9.47;;
16979;SDS011;42288;52.182;21.156;2022-10-31T11:56:23;18.33;;;9.57;;
16979;SDS011;42288;52.182;21.156;2022-10-31T11:59:01;17.53;;;9.50;;
16979;SDS011;42288;52.182;21.156;2022-10-31T12:01:29;16.13;;;9.70;;
16979;SDS011;42288;52.182;21.156;2022-10-31T12:04:01;13.73;;;9.53;;
16979;SDS011;42288;52.182;21.156;2022-10-31T12:06:31;15.90;;;8.80;;
16979;SDS011;42288;52.182;21.156;2022-10-31T12:09:01;15.23;;;8.17;;
16979;SDS011;42288;52.182;21.156;2022-10-31T12:11:46;13.63;;;8.23;;
16979;SDS011;42288;52.182;21.156;2022-10-31T12:14:28;12.50;;;7.67;;
16979;SDS011;42288;52.182;21.156;2022-10-31T12:17:13;13.60;;;7.80;;
16979;SDS011;42288;52.182;21.156;2022-10-31T12:19:43;12.77;;;7.00;;
16979;SDS011;42288;52.182;21.156;2022-10-31T12:22:36;13.50;;;8.10;;
16979;SDS011;42288;52.182;21.156;2022-10-31T12:25:19;18.13;;;8.57;;
16979;SDS011;42288;52.182;21.156;2022-10-31T12:36:38;18.83;;;9.17;;
16979;SDS011;42288;52.182;21.156;2022-10-31T12:41:46;14.20;;;8.73;;
16979;SDS011;42288;52.182;21.156;2022-10-31T12:47:07;13.50;;;8.90;;
16979;SDS011;42288;52.182;21.156;2022-10-31T12:49:54;14.20;;;8.20;;
16979;SDS011;42288;52.182;21.156;2022-10-31T12:58:02;13.43;;;8.50;;
16979;SDS011;42288;52.182;21.156;2022-10-31T13:00:35;14.17;;;8.97;;
16979;SDS011;42288;52.182;21.156;2022-10-31T13:03:24;16.57;;;9.10;;
16979;SDS011;42288;52.182;21.156;2022-10-31T13:05:57;18.23;;;10.20;;
16979;SDS011;42288;52.182;21.156;2022-10-31T13:08:33;15.47;;;9.37;;
16979;SDS011;42288;52.182;21.156;2022-10-31T13:11:40;17.00;;;9.67;;
16979;SDS011;42288;52.182;21.156;2022-10-31T13:16:38;16.87;;;11.30;;
16979;SDS011;42288;52.182;21.156;2022-10-31T13:21:45;20.33;;;10.77;;
16979;SDS011;42288;52.182;21.156;2022-10-31T13:24:38;28.40;;;11.20;;
16979;SDS011;42288;52.182;21.156;2022-10-31T13:27:23;15.37;;;10.23;;
16979;SDS011;42288;52.182;21.156;2022-10-31T13:30:01;17.40;;;11.20;;
16979;SDS011;42288;52.182;21.156;2022-10-31T13:35:16;19.60;;;10.43;;
16979;SDS011;42288;52.182;21.156;2022-10-31T13:43:28;19.23;;;10.97;;
16979;SDS011;42288;52.182;21.156;2022-10-31T13:46:44;16.80;;;10.40;;
16979;SDS011;42288;52.182;21.156;2022-10-31T13:49:21;19.27;;;10.33;;
16979;SDS011;42288;52.182;21.156;2022-10-31T13:51:49;16.50;;;10.03;;
16979;SDS011;42288;52.182;21.156;2022-10-31T13:56:59;15.60;;;9.30;;
16979;SDS011;42288;52.182;21.156;2022-10-31T13:59:26;17.03;;;9.60;;
16979;SDS011;42288;52.182;21.156;2022-10-31T14:01:57;16.17;;;9.40;;
16979;SDS011;42288;52.182;21.156;2022-10-31T14:04:26;20.63;;;9.43;;
16979;SDS011;42288;52.182;21.156;2022-10-31T14:07:07;18.50;;;9.73;;
16979;SDS011;42288;52.182;21.156;2022-10-31T14:09:38;16.53;;;9.37;;
16979;SDS011;42288;52.182;21.156;2022-10-31T14:12:07;17.37;;;9.43;;
16979;SDS011;42288;52.182;21.156;2022-10-31T14:14:45;16.57;;;8.77;;
16979;SDS011;42288;52.182;21.156;2022-10-31T14:17:21;15.50;;;8.60;;
16979;SDS011;42288;52.182;21.156;2022-10-31T14:19:59;14.37;;;8.87;;
16979;SDS011;42288;52.182;21.156;2022-10-31T14:22:31;15.53;;;8.63;;
16979;SDS011;42288;52.182;21.156;2022-10-31T14:24:57;15.50;;;9.50;;
16979;SDS011;42288;52.182;21.156;2022-10-31T14:29:51;18.13;;;10.73;;
16979;SDS011;42288;52.182;21.156;2022-10-31T14:32:23;21.47;;;11.13;;
16979;SDS011;42288;52.182;21.156;2022-10-31T14:37:32;16.43;;;10.57;;
16979;SDS011;42288;52.182;21.156;2022-10-31T14:51:43;22.97;;;14.17;;
16979;SDS011;42288;52.182;21.156;2022-10-31T14:54:14;22.37;;;13.83;;
16979;SDS011;42288;52.182;21.156;2022-10-31T14:56:54;26.17;;;14.77;;
16979;SDS011;42288;52.182;21.156;2022-10-31T14:59:28;27.63;;;15.33;;
16979;SDS011;42288;52.182;21.156;2022-10-31T15:01:58;24.57;;;15.80;;
16979;SDS011;42288;52.182;21.156;2022-10-31T15:04:27;25.80;;;15.33;;
16979;SDS011;42288;52.182;21.156;2022-10-31T15:07:11;25.17;;;15.93;;
16979;SDS011;42288;52.182;21.156;2022-10-31T15:09:42;25.23;;;15.90;;
16979;SDS011;42288;52.182;21.156;2022-10-31T15:12:27;24.93;;;15.87;;
16979;SDS011;42288;52.182;21.156;2022-10-31T15:14:57;30.43;;;18.73;;
16979;SDS011;42288;52.182;21.156;2022-10-31T15:17:35;31.47;;;19.53;;
16979;SDS011;42288;52.182;21.156;2022-10-31T15:20:00;32.17;;;20.50;;
16979;SDS011;42288;52.182;21.156;2022-10-31T15:22:28;32.77;;;18.37;;
16979;SDS011;42288;52.182;21.156;2022-10-31T15:24:56;32.03;;;18.73;;
16979;SDS011;42288;52.182;21.156;2022-10-31T15:27:22;31.87;;;19.47;;
16979;SDS011;42288;52.182;21.156;2022-10-31T15:29:49;33.27;;;19.17;;
16979;SDS011;42288;52.182;21.156;2022-10-31T15:32:27;31.60;;;19.27;;
16979;SDS011;42288;52.182;21.156;2022-10-31T15:34:54;35.20;;;20.67;;
16979;SDS011;42288;52.182;21.156;2022-10-31T15:37:22;33.43;;;19.83;;
16979;SDS011;42288;52.182;21.156;2022-10-31T15:39:49;32.43;;;19.37;;
16979;SDS011;42288;52.182;21.156;2022-10-31T15:42:23;36.77;;;20.77;;
16979;SDS011;42288;52.182;21.156;2022-10-31T15:45:05;35.10;;;21.13;;
16979;SDS011;42288;52.182;21.156;2022-10-31T15:47:49;34.33;;;19.73;;
16979;SDS011;42288;52.182;21.156;2022-10-31T15:50:27;33.93;;;18.83;;
16979;SDS011;42288;52.182;21.156;2022-10-31T15:52:56;31.27;;;19.80;;
16979;SDS011;42288;52.182;21.156;2022-10-31T15:55:24;32.40;;;18.77;;
16979;SDS011;42288;52.182;21.156;2022-10-31T15:57:53;32.83;;;19.07;;
16979;SDS011;42288;52.182;21.156;2022-10-31T16:00:27;38.33;;;20.30;;